sensor_id;sensor_type;location;lat;lon;timestamp;P1;durP1;ratioP1;P2;durP2;ratioP2
12707;SDS011;6418;50.824;4.718;2023-09-19T00:02:04;14.93;;;4.50;;
12707;SDS011;6418;50.824;4.718;2023-09-19T00:04:34;19.20;;;4.60;;
12707;SDS011;6418;50.824;4.718;2023-09-19T00:07:04;21.27;;;4.77;;
12707;SDS011;6418;50.824;4.718;2023-09-19T00:09:31;14.67;;;4.60;;
12707;SDS011;6418;50.824;4.718;2023-09-19T00:12:02;16.13;;;4.63;;
12707;SDS011;6418;50.824;4.718;2023-09-19T00:14:30;15.43;;;4.30;;
12707;SDS011;6418;50.824;4.718;2023-09-19T00:16:59;16.17;;;4.53;;
12707;SDS011;6418;50.824;4.718;2023-09-19T00:19:31;19.63;;;4.70;;
12707;SDS011;6418;50.824;4.718;2023-09-19T00:22:00;16.57;;;4.93;;
12707;SDS011;6418;50.824;4.718;2023-09-19T00:24:28;15.40;;;4.47;;
12707;SDS011;6418;50.824;4.718;2023-09-19T00:26:55;15.10;;;4.57;;
12707;SDS011;6418;50.824;4.718;2023-09-19T00:29:24;16.43;;;5.07;;
12707;SDS011;6418;50.824;4.718;2023-09-19T00:31:54;18.60;;;4.80;;
12707;SDS011;6418;50.824;4.718;2023-09-19T00:34:22;15.30;;;4.87;;
12707;SDS011;6418;50.824;4.718;2023-09-19T00:36:50;17.80;;;5.13;;
12707;SDS011;6418;50.824;4.718;2023-09-19T00:39:20;18.73;;;4.67;;
12707;SDS011;6418;50.824;4.718;2023-09-19T00:41:47;16.60;;;4.87;;
12707;SDS011;6418;50.824;4.718;2023-09-19T00:44:15;16.53;;;4.83;;
12707;SDS011;6418;50.824;4.718;2023-09-19T00:46:43;17.33;;;4.50;;
12707;SDS011;6418;50.824;4.718;2023-09-19T00:49:12;14.77;;;4.70;;
12707;SDS011;6418;50.824;4.718;2023-09-19T00:51:40;16.37;;;4.93;;
12707;SDS011;6418;50.824;4.718;2023-09-19T00:54:10;16.20;;;4.77;;
12707;SDS011;6418;50.824;4.718;2023-09-19T00:56:44;15.37;;;4.50;;
12707;SDS011;6418;50.824;4.718;2023-09-19T00:59:14;18.40;;;4.50;;
12707;SDS011;6418;50.824;4.718;2023-09-19T01:01:44;17.60;;;4.80;;
12707;SDS011;6418;50.824;4.718;2023-09-19T01:04:13;19.17;;;5.20;;
12707;SDS011;6418;50.824;4.718;2023-09-19T01:06:42;13.80;;;4.77;;
12707;SDS011;6418;50.824;4.718;2023-09-19T01:09:11;16.63;;;4.60;;
12707;SDS011;6418;50.824;4.718;2023-09-19T01:11:40;17.07;;;4.70;;
12707;SDS011;6418;50.824;4.718;2023-09-19T01:14:15;18.73;;;5.00;;
12707;SDS011;6418;50.824;4.718;2023-09-19T01:16:56;17.07;;;4.87;;
12707;SDS011;6418;50.824;4.718;2023-09-19T01:22:53;17.53;;;4.53;;
12707;SDS011;6418;50.824;4.718;2023-09-19T01:25:36;14.70;;;4.67;;
12707;SDS011;6418;50.824;4.718;2023-09-19T01:28:30;16.93;;;4.83;;
12707;SDS011;6418;50.824;4.718;2023-09-19T01:31:03;14.03;;;4.63;;
12707;SDS011;6418;50.824;4.718;2023-09-19T01:36:24;18.37;;;4.90;;
12707;SDS011;6418;50.824;4.718;2023-09-19T01:38:52;17.40;;;4.83;;
12707;SDS011;6418;50.824;4.718;2023-09-19T01:41:21;19.67;;;5.10;;
12707;SDS011;6418;50.824;4.718;2023-09-19T01:43:56;15.73;;;4.60;;
12707;SDS011;6418;50.824;4.718;2023-09-19T01:46:28;16.10;;;4.63;;
12707;SDS011;6418;50.824;4.718;2023-09-19T01:49:03;14.17;;;4.50;;
12707;SDS011;6418;50.824;4.718;2023-09-19T01:51:42;16.93;;;4.50;;
12707;SDS011;6418;50.824;4.718;2023-09-19T01:54:16;20.93;;;5.17;;
12707;SDS011;6418;50.824;4.718;2023-09-19T01:56:57;14.53;;;4.43;;
12707;SDS011;6418;50.824;4.718;2023-09-19T01:59:31;18.20;;;4.80;;
12707;SDS011;6418;50.824;4.718;2023-09-19T02:02:04;19.20;;;5.07;;
12707;SDS011;6418;50.824;4.718;2023-09-19T02:04:33;19.67;;;4.67;;
12707;SDS011;6418;50.824;4.718;2023-09-19T02:07:01;17.40;;;4.77;;
12707;SDS011;6418;50.824;4.718;2023-09-19T02:09:30;18.83;;;4.97;;
12707;SDS011;6418;50.824;4.718;2023-09-19T02:12:00;18.37;;;5.03;;
12707;SDS011;6418;50.824;4.718;2023-09-19T02:14:29;16.87;;;4.90;;
12707;SDS011;6418;50.824;4.718;2023-09-19T02:16:57;15.67;;;4.53;;
12707;SDS011;6418;50.824;4.718;2023-09-19T02:19:27;14.83;;;4.40;;
12707;SDS011;6418;50.824;4.718;2023-09-19T02:21:54;18.23;;;5.10;;
12707;SDS011;6418;50.824;4.718;2023-09-19T02:24:21;17.33;;;4.50;;
12707;SDS011;6418;50.824;4.718;2023-09-19T02:26:49;17.70;;;4.90;;
12707;SDS011;6418;50.824;4.718;2023-09-19T02:29:17;14.20;;;4.40;;
12707;SDS011;6418;50.824;4.718;2023-09-19T02:31:44;16.63;;;4.63;;
12707;SDS011;6418;50.824;4.718;2023-09-19T02:34:11;15.33;;;4.83;;
12707;SDS011;6418;50.824;4.718;2023-09-19T02:36:43;21.27;;;4.70;;
12707;SDS011;6418;50.824;4.718;2023-09-19T02:39:11;19.73;;;5.43;;
12707;SDS011;6418;50.824;4.718;2023-09-19T02:41:38;17.33;;;5.10;;
12707;SDS011;6418;50.824;4.718;2023-09-19T02:44:06;22.07;;;5.20;;
12707;SDS011;6418;50.824;4.718;2023-09-19T02:46:33;15.47;;;4.80;;
12707;SDS011;6418;50.824;4.718;2023-09-19T02:49:02;15.73;;;4.63;;
12707;SDS011;6418;50.824;4.718;2023-09-19T02:51:30;17.53;;;5.23;;
12707;SDS011;6418;50.824;4.718;2023-09-19T02:53:58;17.73;;;4.20;;
12707;SDS011;6418;50.824;4.718;2023-09-19T02:56:25;16.80;;;5.00;;
12707;SDS011;6418;50.824;4.718;2023-09-19T02:58:51;17.10;;;4.90;;
12707;SDS011;6418;50.824;4.718;2023-09-19T03:01:20;16.83;;;5.10;;
12707;SDS011;6418;50.824;4.718;2023-09-19T03:03:47;17.37;;;4.93;;
12707;SDS011;6418;50.824;4.718;2023-09-19T03:06:14;18.90;;;5.10;;
12707;SDS011;6418;50.824;4.718;2023-09-19T03:08:45;19.33;;;5.37;;
12707;SDS011;6418;50.824;4.718;2023-09-19T03:11:15;20.80;;;5.57;;
12707;SDS011;6418;50.824;4.718;2023-09-19T03:13:50;21.63;;;5.53;;
12707;SDS011;6418;50.824;4.718;2023-09-19T03:16:17;16.57;;;5.10;;
12707;SDS011;6418;50.824;4.718;2023-09-19T03:18:47;16.70;;;5.27;;
12707;SDS011;6418;50.824;4.718;2023-09-19T03:21:14;20.90;;;5.13;;
12707;SDS011;6418;50.824;4.718;2023-09-19T03:23:42;16.30;;;4.83;;
12707;SDS011;6418;50.824;4.718;2023-09-19T03:26:11;19.27;;;5.33;;
12707;SDS011;6418;50.824;4.718;2023-09-19T03:28:41;17.53;;;5.13;;
12707;SDS011;6418;50.824;4.718;2023-09-19T03:31:08;17.60;;;4.93;;
12707;SDS011;6418;50.824;4.718;2023-09-19T03:33:36;18.87;;;4.63;;
12707;SDS011;6418;50.824;4.718;2023-09-19T03:36:03;17.20;;;4.97;;
12707;SDS011;6418;50.824;4.718;2023-09-19T03:38:31;16.83;;;4.87;;
12707;SDS011;6418;50.824;4.718;2023-09-19T03:40:59;17.93;;;5.07;;
12707;SDS011;6418;50.824;4.718;2023-09-19T03:43:26;18.83;;;5.03;;
12707;SDS011;6418;50.824;4.718;2023-09-19T03:45:54;18.00;;;5.00;;
12707;SDS011;6418;50.824;4.718;2023-09-19T03:48:21;18.27;;;5.20;;
12707;SDS011;6418;50.824;4.718;2023-09-19T03:50:48;15.30;;;4.90;;
12707;SDS011;6418;50.824;4.718;2023-09-19T03:53:16;17.23;;;5.10;;
12707;SDS011;6418;50.824;4.718;2023-09-19T03:55:44;16.27;;;5.00;;
12707;SDS011;6418;50.824;4.718;2023-09-19T03:58:11;19.27;;;4.93;;
12707;SDS011;6418;50.824;4.718;2023-09-19T04:00:38;16.20;;;4.90;;
12707;SDS011;6418;50.824;4.718;2023-09-19T04:03:06;17.67;;;5.30;;
12707;SDS011;6418;50.824;4.718;2023-09-19T04:05:34;21.53;;;4.93;;
12707;SDS011;6418;50.824;4.718;2023-09-19T04:08:01;19.33;;;5.03;;
12707;SDS011;6418;50.824;4.718;2023-09-19T04:10:28;18.27;;;5.10;;
12707;SDS011;6418;50.824;4.718;2023-09-19T04:12:55;15.77;;;4.90;;
12707;SDS011;6418;50.824;4.718;2023-09-19T04:15:22;19.13;;;4.67;;
12707;SDS011;6418;50.824;4.718;2023-09-19T04:17:49;20.73;;;5.13;;
12707;SDS011;6418;50.824;4.718;2023-09-19T04:20:18;17.17;;;4.83;;
12707;SDS011;6418;50.824;4.718;2023-09-19T04:22:47;18.50;;;4.90;;
12707;SDS011;6418;50.824;4.718;2023-09-19T04:25:14;17.80;;;4.70;;
12707;SDS011;6418;50.824;4.718;2023-09-19T04:27:41;17.77;;;4.60;;
12707;SDS011;6418;50.824;4.718;2023-09-19T04:30:10;17.23;;;4.73;;
12707;SDS011;6418;50.824;4.718;2023-09-19T04:32:38;17.53;;;5.00;;
12707;SDS011;6418;50.824;4.718;2023-09-19T04:35:06;15.87;;;5.00;;
12707;SDS011;6418;50.824;4.718;2023-09-19T04:37:37;16.77;;;5.00;;
12707;SDS011;6418;50.824;4.718;2023-09-19T04:40:06;19.67;;;4.97;;
12707;SDS011;6418;50.824;4.718;2023-09-19T04:42:38;19.13;;;4.97;;
12707;SDS011;6418;50.824;4.718;2023-09-19T04:45:07;17.40;;;4.87;;
12707;SDS011;6418;50.824;4.718;2023-09-19T04:47:35;15.30;;;4.53;;
12707;SDS011;6418;50.824;4.718;2023-09-19T04:50:04;18.23;;;4.60;;
12707;SDS011;6418;50.824;4.718;2023-09-19T04:52:33;15.77;;;4.70;;
12707;SDS011;6418;50.824;4.718;2023-09-19T04:55:01;20.63;;;5.20;;
12707;SDS011;6418;50.824;4.718;2023-09-19T04:57:29;15.87;;;4.80;;
12707;SDS011;6418;50.824;4.718;2023-09-19T04:59:56;16.70;;;4.80;;
12707;SDS011;6418;50.824;4.718;2023-09-19T05:02:23;18.53;;;4.63;;
12707;SDS011;6418;50.824;4.718;2023-09-19T05:04:51;18.53;;;5.00;;
12707;SDS011;6418;50.824;4.718;2023-09-19T05:07:18;17.50;;;4.87;;
12707;SDS011;6418;50.824;4.718;2023-09-19T05:09:47;12.40;;;4.30;;
12707;SDS011;6418;50.824;4.718;2023-09-19T05:12:15;15.53;;;4.90;;
12707;SDS011;6418;50.824;4.718;2023-09-19T05:14:43;18.87;;;4.73;;
12707;SDS011;6418;50.824;4.718;2023-09-19T05:17:10;13.40;;;4.67;;
12707;SDS011;6418;50.824;4.718;2023-09-19T05:19:37;17.90;;;5.03;;
12707;SDS011;6418;50.824;4.718;2023-09-19T05:22:04;13.07;;;4.53;;
12707;SDS011;6418;50.824;4.718;2023-09-19T05:24:32;17.90;;;4.90;;
12707;SDS011;6418;50.824;4.718;2023-09-19T05:26:59;18.73;;;5.03;;
12707;SDS011;6418;50.824;4.718;2023-09-19T05:29:27;18.10;;;5.40;;
12707;SDS011;6418;50.824;4.718;2023-09-19T05:31:54;19.47;;;5.40;;
12707;SDS011;6418;50.824;4.718;2023-09-19T05:34:21;22.30;;;5.20;;
12707;SDS011;6418;50.824;4.718;2023-09-19T05:36:48;16.53;;;4.77;;
12707;SDS011;6418;50.824;4.718;2023-09-19T05:39:15;17.63;;;4.80;;
12707;SDS011;6418;50.824;4.718;2023-09-19T05:41:42;19.03;;;4.90;;
12707;SDS011;6418;50.824;4.718;2023-09-19T05:44:09;14.43;;;4.20;;
12707;SDS011;6418;50.824;4.718;2023-09-19T05:46:37;19.60;;;4.90;;
12707;SDS011;6418;50.824;4.718;2023-09-19T05:49:04;16.10;;;4.93;;
12707;SDS011;6418;50.824;4.718;2023-09-19T05:51:31;17.87;;;4.67;;
12707;SDS011;6418;50.824;4.718;2023-09-19T05:53:58;18.97;;;4.67;;
12707;SDS011;6418;50.824;4.718;2023-09-19T05:56:25;17.47;;;4.60;;
12707;SDS011;6418;50.824;4.718;2023-09-19T05:58:52;17.97;;;4.73;;
12707;SDS011;6418;50.824;4.718;2023-09-19T06:01:19;14.27;;;4.87;;
12707;SDS011;6418;50.824;4.718;2023-09-19T06:03:47;17.30;;;4.70;;
12707;SDS011;6418;50.824;4.718;2023-09-19T06:06:14;15.73;;;4.53;;
12707;SDS011;6418;50.824;4.718;2023-09-19T06:08:41;16.73;;;4.80;;
12707;SDS011;6418;50.824;4.718;2023-09-19T06:11:10;18.90;;;4.97;;
12707;SDS011;6418;50.824;4.718;2023-09-19T06:13:37;17.50;;;5.13;;
12707;SDS011;6418;50.824;4.718;2023-09-19T06:16:05;18.63;;;5.27;;
12707;SDS011;6418;50.824;4.718;2023-09-19T06:18:32;16.17;;;4.83;;
12707;SDS011;6418;50.824;4.718;2023-09-19T06:21:01;17.53;;;4.63;;
12707;SDS011;6418;50.824;4.718;2023-09-19T06:23:32;18.37;;;5.20;;
12707;SDS011;6418;50.824;4.718;2023-09-19T06:26:00;18.07;;;4.73;;
12707;SDS011;6418;50.824;4.718;2023-09-19T06:28:27;21.47;;;4.93;;
12707;SDS011;6418;50.824;4.718;2023-09-19T06:30:54;17.67;;;4.90;;
12707;SDS011;6418;50.824;4.718;2023-09-19T06:33:22;16.70;;;4.90;;
12707;SDS011;6418;50.824;4.718;2023-09-19T06:35:49;17.87;;;4.70;;
12707;SDS011;6418;50.824;4.718;2023-09-19T06:38:25;16.17;;;4.50;;
12707;SDS011;6418;50.824;4.718;2023-09-19T06:40:53;16.43;;;4.73;;
12707;SDS011;6418;50.824;4.718;2023-09-19T06:43:20;17.43;;;4.40;;
12707;SDS011;6418;50.824;4.718;2023-09-19T06:45:47;14.07;;;4.83;;
12707;SDS011;6418;50.824;4.718;2023-09-19T06:48:15;16.17;;;4.50;;
12707;SDS011;6418;50.824;4.718;2023-09-19T06:50:43;14.60;;;4.67;;
12707;SDS011;6418;50.824;4.718;2023-09-19T06:53:10;14.20;;;4.53;;
12707;SDS011;6418;50.824;4.718;2023-09-19T06:55:38;20.47;;;4.90;;
12707;SDS011;6418;50.824;4.718;2023-09-19T06:58:05;16.77;;;4.60;;
12707;SDS011;6418;50.824;4.718;2023-09-19T07:00:33;15.13;;;4.67;;
12707;SDS011;6418;50.824;4.718;2023-09-19T07:03:02;15.97;;;4.57;;
12707;SDS011;6418;50.824;4.718;2023-09-19T07:05:33;15.97;;;4.60;;
12707;SDS011;6418;50.824;4.718;2023-09-19T07:08:03;17.70;;;5.00;;
12707;SDS011;6418;50.824;4.718;2023-09-19T07:10:31;13.67;;;4.30;;
12707;SDS011;6418;50.824;4.718;2023-09-19T07:13:00;15.70;;;4.40;;
12707;SDS011;6418;50.824;4.718;2023-09-19T07:15:29;14.37;;;4.43;;
12707;SDS011;6418;50.824;4.718;2023-09-19T07:17:58;20.50;;;5.13;;
12707;SDS011;6418;50.824;4.718;2023-09-19T07:20:26;12.97;;;4.87;;
12707;SDS011;6418;50.824;4.718;2023-09-19T07:22:56;14.07;;;4.23;;
12707;SDS011;6418;50.824;4.718;2023-09-19T07:25:24;17.53;;;4.77;;
12707;SDS011;6418;50.824;4.718;2023-09-19T07:27:51;14.27;;;4.40;;
12707;SDS011;6418;50.824;4.718;2023-09-19T07:30:22;15.83;;;4.40;;
12707;SDS011;6418;50.824;4.718;2023-09-19T07:32:49;15.33;;;4.33;;
12707;SDS011;6418;50.824;4.718;2023-09-19T07:35:16;16.00;;;4.40;;
12707;SDS011;6418;50.824;4.718;2023-09-19T07:37:45;15.57;;;4.53;;
12707;SDS011;6418;50.824;4.718;2023-09-19T07:40:14;16.90;;;4.60;;
12707;SDS011;6418;50.824;4.718;2023-09-19T07:42:41;16.07;;;4.33;;
12707;SDS011;6418;50.824;4.718;2023-09-19T07:45:09;13.53;;;4.47;;
12707;SDS011;6418;50.824;4.718;2023-09-19T07:47:43;17.70;;;4.77;;
12707;SDS011;6418;50.824;4.718;2023-09-19T07:50:10;18.30;;;5.00;;
12707;SDS011;6418;50.824;4.718;2023-09-19T07:52:37;13.97;;;4.87;;
12707;SDS011;6418;50.824;4.718;2023-09-19T07:55:05;15.80;;;4.40;;
12707;SDS011;6418;50.824;4.718;2023-09-19T07:57:34;19.00;;;5.00;;
12707;SDS011;6418;50.824;4.718;2023-09-19T08:00:01;14.90;;;4.60;;
12707;SDS011;6418;50.824;4.718;2023-09-19T08:02:33;16.93;;;4.70;;
12707;SDS011;6418;50.824;4.718;2023-09-19T08:05:04;16.80;;;4.60;;
12707;SDS011;6418;50.824;4.718;2023-09-19T08:07:34;12.97;;;4.40;;
12707;SDS011;6418;50.824;4.718;2023-09-19T08:10:02;19.30;;;5.20;;
12707;SDS011;6418;50.824;4.718;2023-09-19T08:12:29;17.27;;;4.50;;
12707;SDS011;6418;50.824;4.718;2023-09-19T08:14:57;15.97;;;4.90;;
12707;SDS011;6418;50.824;4.718;2023-09-19T08:17:24;18.93;;;4.50;;
12707;SDS011;6418;50.824;4.718;2023-09-19T08:19:51;14.20;;;4.60;;
12707;SDS011;6418;50.824;4.718;2023-09-19T08:22:20;16.00;;;5.13;;
12707;SDS011;6418;50.824;4.718;2023-09-19T08:24:48;18.23;;;4.90;;
12707;SDS011;6418;50.824;4.718;2023-09-19T08:27:15;20.13;;;4.53;;
12707;SDS011;6418;50.824;4.718;2023-09-19T08:29:43;16.60;;;4.47;;
12707;SDS011;6418;50.824;4.718;2023-09-19T08:32:11;15.97;;;4.60;;
12707;SDS011;6418;50.824;4.718;2023-09-19T08:34:39;15.70;;;4.20;;
12707;SDS011;6418;50.824;4.718;2023-09-19T08:37:06;18.53;;;4.50;;
12707;SDS011;6418;50.824;4.718;2023-09-19T08:39:35;19.20;;;4.63;;
12707;SDS011;6418;50.824;4.718;2023-09-19T08:42:03;16.20;;;4.50;;
12707;SDS011;6418;50.824;4.718;2023-09-19T08:44:30;16.80;;;4.30;;
12707;SDS011;6418;50.824;4.718;2023-09-19T08:47:08;18.43;;;4.70;;
12707;SDS011;6418;50.824;4.718;2023-09-19T08:49:38;22.77;;;4.67;;
12707;SDS011;6418;50.824;4.718;2023-09-19T08:52:16;18.27;;;4.37;;
12707;SDS011;6418;50.824;4.718;2023-09-19T08:54:50;18.27;;;4.37;;
12707;SDS011;6418;50.824;4.718;2023-09-19T08:57:19;17.50;;;4.60;;
12707;SDS011;6418;50.824;4.718;2023-09-19T08:59:47;18.00;;;4.53;;
12707;SDS011;6418;50.824;4.718;2023-09-19T09:02:15;14.37;;;4.50;;
12707;SDS011;6418;50.824;4.718;2023-09-19T09:04:44;18.77;;;4.70;;
12707;SDS011;6418;50.824;4.718;2023-09-19T09:07:12;14.40;;;4.77;;
12707;SDS011;6418;50.824;4.718;2023-09-19T09:09:40;17.60;;;4.57;;
12707;SDS011;6418;50.824;4.718;2023-09-19T09:12:12;14.63;;;4.00;;
12707;SDS011;6418;50.824;4.718;2023-09-19T09:14:40;16.10;;;4.80;;
12707;SDS011;6418;50.824;4.718;2023-09-19T09:17:10;13.77;;;4.20;;
12707;SDS011;6418;50.824;4.718;2023-09-19T09:19:37;15.33;;;4.27;;
12707;SDS011;6418;50.824;4.718;2023-09-19T09:22:06;16.97;;;4.37;;
12707;SDS011;6418;50.824;4.718;2023-09-19T09:24:34;14.93;;;4.70;;
12707;SDS011;6418;50.824;4.718;2023-09-19T09:27:03;14.93;;;4.40;;
12707;SDS011;6418;50.824;4.718;2023-09-19T09:29:44;18.63;;;4.83;;
12707;SDS011;6418;50.824;4.718;2023-09-19T09:32:18;16.93;;;4.17;;
12707;SDS011;6418;50.824;4.718;2023-09-19T09:34:47;13.77;;;4.10;;
12707;SDS011;6418;50.824;4.718;2023-09-19T09:37:16;17.97;;;4.53;;
12707;SDS011;6418;50.824;4.718;2023-09-19T09:39:54;16.70;;;3.93;;
12707;SDS011;6418;50.824;4.718;2023-09-19T09:42:29;16.17;;;4.37;;
12707;SDS011;6418;50.824;4.718;2023-09-19T09:45:14;15.13;;;4.43;;
12707;SDS011;6418;50.824;4.718;2023-09-19T09:47:42;15.13;;;3.93;;
12707;SDS011;6418;50.824;4.718;2023-09-19T09:50:26;13.33;;;4.17;;
12707;SDS011;6418;50.824;4.718;2023-09-19T09:53:21;13.47;;;4.23;;
12707;SDS011;6418;50.824;4.718;2023-09-19T09:55:57;16.17;;;4.17;;
12707;SDS011;6418;50.824;4.718;2023-09-19T09:58:26;14.43;;;4.00;;
12707;SDS011;6418;50.824;4.718;2023-09-19T10:00:56;18.67;;;4.30;;
12707;SDS011;6418;50.824;4.718;2023-09-19T10:03:31;17.97;;;4.27;;
12707;SDS011;6418;50.824;4.718;2023-09-19T10:06:04;14.33;;;4.00;;
12707;SDS011;6418;50.824;4.718;2023-09-19T10:08:59;15.30;;;4.03;;
12707;SDS011;6418;50.824;4.718;2023-09-19T10:11:42;11.60;;;3.83;;
12707;SDS011;6418;50.824;4.718;2023-09-19T10:14:10;11.60;;;4.00;;
12707;SDS011;6418;50.824;4.718;2023-09-19T10:16:46;12.93;;;3.80;;
12707;SDS011;6418;50.824;4.718;2023-09-19T10:19:15;13.17;;;4.00;;
12707;SDS011;6418;50.824;4.718;2023-09-19T10:21:49;17.13;;;4.00;;
12707;SDS011;6418;50.824;4.718;2023-09-19T10:24:20;12.20;;;3.97;;
12707;SDS011;6418;50.824;4.718;2023-09-19T10:26:50;12.83;;;3.70;;
12707;SDS011;6418;50.824;4.718;2023-09-19T10:29:17;10.10;;;3.60;;
12707;SDS011;6418;50.824;4.718;2023-09-19T10:31:48;10.83;;;3.53;;
12707;SDS011;6418;50.824;4.718;2023-09-19T10:34:15;10.33;;;3.57;;
12707;SDS011;6418;50.824;4.718;2023-09-19T10:36:45;11.93;;;3.67;;
12707;SDS011;6418;50.824;4.718;2023-09-19T10:39:13;14.77;;;3.70;;
12707;SDS011;6418;50.824;4.718;2023-09-19T10:41:47;13.87;;;3.60;;
12707;SDS011;6418;50.824;4.718;2023-09-19T10:44:21;14.40;;;3.60;;
12707;SDS011;6418;50.824;4.718;2023-09-19T10:46:52;12.50;;;3.57;;
12707;SDS011;6418;50.824;4.718;2023-09-19T10:49:19;11.87;;;3.43;;
12707;SDS011;6418;50.824;4.718;2023-09-19T10:51:47;11.60;;;3.73;;
12707;SDS011;6418;50.824;4.718;2023-09-19T10:54:17;11.83;;;3.70;;
12707;SDS011;6418;50.824;4.718;2023-09-19T10:56:48;11.33;;;3.70;;
12707;SDS011;6418;50.824;4.718;2023-09-19T10:59:17;9.33;;;3.47;;
12707;SDS011;6418;50.824;4.718;2023-09-19T11:01:46;10.63;;;3.60;;
12707;SDS011;6418;50.824;4.718;2023-09-19T11:07:06;12.10;;;3.50;;
12707;SDS011;6418;50.824;4.718;2023-09-19T11:09:46;11.80;;;3.57;;
12707;SDS011;6418;50.824;4.718;2023-09-19T11:18:53;10.10;;;3.10;;
12707;SDS011;6418;50.824;4.718;2023-09-19T11:24:32;12.47;;;3.40;;
12707;SDS011;6418;50.824;4.718;2023-09-19T11:27:09;10.57;;;3.33;;
12707;SDS011;6418;50.824;4.718;2023-09-19T11:29:42;11.87;;;3.23;;
12707;SDS011;6418;50.824;4.718;2023-09-19T11:32:09;8.47;;;3.10;;
12707;SDS011;6418;50.824;4.718;2023-09-19T11:40:37;9.03;;;3.00;;
12707;SDS011;6418;50.824;4.718;2023-09-19T11:46:06;7.23;;;2.63;;
12707;SDS011;6418;50.824;4.718;2023-09-19T11:48:33;8.70;;;2.88;;
12707;SDS011;6418;50.824;4.718;2023-09-19T11:51:10;8.10;;;3.13;;
12707;SDS011;6418;50.824;4.718;2023-09-19T11:53:45;11.07;;;2.85;;
12707;SDS011;6418;50.824;4.718;2023-09-19T11:56:15;9.07;;;2.97;;
12707;SDS011;6418;50.824;4.718;2023-09-19T11:58:43;11.17;;;3.20;;
12707;SDS011;6418;50.824;4.718;2023-09-19T12:01:14;9.30;;;3.22;;
12707;SDS011;6418;50.824;4.718;2023-09-19T12:03:47;10.95;;;2.53;;
12707;SDS011;6418;50.824;4.718;2023-09-19T12:06:20;10.98;;;3.20;;
12707;SDS011;6418;50.824;4.718;2023-09-19T12:08:49;4.93;;;2.40;;
12707;SDS011;6418;50.824;4.718;2023-09-19T12:11:19;7.35;;;2.95;;
12707;SDS011;6418;50.824;4.718;2023-09-19T12:13:48;6.35;;;2.67;;
12707;SDS011;6418;50.824;4.718;2023-09-19T12:16:16;7.82;;;2.80;;
12707;SDS011;6418;50.824;4.718;2023-09-19T12:18:47;7.13;;;2.63;;
12707;SDS011;6418;50.824;4.718;2023-09-19T12:21:21;9.15;;;2.70;;
12707;SDS011;6418;50.824;4.718;2023-09-19T12:24:11;8.55;;;2.88;;
12707;SDS011;6418;50.824;4.718;2023-09-19T12:26:39;6.75;;;2.95;;
12707;SDS011;6418;50.824;4.718;2023-09-19T12:29:15;6.95;;;2.95;;
12707;SDS011;6418;50.824;4.718;2023-09-19T12:31:50;8.90;;;2.90;;
12707;SDS011;6418;50.824;4.718;2023-09-19T12:34:20;10.65;;;3.30;;
12707;SDS011;6418;50.824;4.718;2023-09-19T12:36:48;5.85;;;2.60;;
12707;SDS011;6418;50.824;4.718;2023-09-19T12:39:23;11.18;;;3.00;;
12707;SDS011;6418;50.824;4.718;2023-09-19T12:41:52;7.35;;;2.63;;
12707;SDS011;6418;50.824;4.718;2023-09-19T12:44:19;8.10;;;3.05;;
12707;SDS011;6418;50.824;4.718;2023-09-19T12:46:49;6.93;;;3.03;;
12707;SDS011;6418;50.824;4.718;2023-09-19T12:49:17;11.85;;;3.10;;
12707;SDS011;6418;50.824;4.718;2023-09-19T12:51:45;9.80;;;3.00;;
12707;SDS011;6418;50.824;4.718;2023-09-19T12:54:13;6.18;;;2.90;;
12707;SDS011;6418;50.824;4.718;2023-09-19T12:56:43;10.73;;;3.10;;
12707;SDS011;6418;50.824;4.718;2023-09-19T12:59:12;7.45;;;2.58;;
12707;SDS011;6418;50.824;4.718;2023-09-19T13:01:40;9.45;;;2.75;;
12707;SDS011;6418;50.824;4.718;2023-09-19T13:04:14;11.00;;;3.05;;
12707;SDS011;6418;50.824;4.718;2023-09-19T13:06:44;8.88;;;2.75;;
12707;SDS011;6418;50.824;4.718;2023-09-19T13:09:13;6.82;;;2.78;;
12707;SDS011;6418;50.824;4.718;2023-09-19T13:11:43;5.93;;;2.78;;
12707;SDS011;6418;50.824;4.718;2023-09-19T13:14:13;8.73;;;3.10;;
12707;SDS011;6418;50.824;4.718;2023-09-19T13:16:54;10.00;;;3.15;;
12707;SDS011;6418;50.824;4.718;2023-09-19T13:19:34;8.65;;;2.75;;
12707;SDS011;6418;50.824;4.718;2023-09-19T13:22:03;8.02;;;2.88;;
12707;SDS011;6418;50.824;4.718;2023-09-19T13:24:29;7.57;;;2.97;;
12707;SDS011;6418;50.824;4.718;2023-09-19T13:26:59;8.95;;;2.75;;
12707;SDS011;6418;50.824;4.718;2023-09-19T13:29:28;8.50;;;2.83;;
12707;SDS011;6418;50.824;4.718;2023-09-19T13:31:55;8.27;;;2.80;;
12707;SDS011;6418;50.824;4.718;2023-09-19T13:34:22;7.82;;;3.00;;
12707;SDS011;6418;50.824;4.718;2023-09-19T13:36:49;10.00;;;2.80;;
12707;SDS011;6418;50.824;4.718;2023-09-19T13:39:16;9.82;;;2.60;;
12707;SDS011;6418;50.824;4.718;2023-09-19T13:41:44;8.93;;;3.05;;
12707;SDS011;6418;50.824;4.718;2023-09-19T13:44:14;7.80;;;2.75;;
12707;SDS011;6418;50.824;4.718;2023-09-19T13:46:42;7.32;;;3.10;;
12707;SDS011;6418;50.824;4.718;2023-09-19T13:49:10;9.60;;;3.20;;
12707;SDS011;6418;50.824;4.718;2023-09-19T13:51:37;6.13;;;2.70;;
12707;SDS011;6418;50.824;4.718;2023-09-19T13:54:08;10.10;;;3.00;;
12707;SDS011;6418;50.824;4.718;2023-09-19T13:56:36;8.07;;;3.17;;
12707;SDS011;6418;50.824;4.718;2023-09-19T13:59:04;8.90;;;2.80;;
12707;SDS011;6418;50.824;4.718;2023-09-19T14:01:33;10.65;;;3.40;;
12707;SDS011;6418;50.824;4.718;2023-09-19T14:04:00;6.90;;;2.85;;
12707;SDS011;6418;50.824;4.718;2023-09-19T14:06:27;7.43;;;2.42;;
12707;SDS011;6418;50.824;4.718;2023-09-19T14:08:54;7.70;;;3.28;;
12707;SDS011;6418;50.824;4.718;2023-09-19T14:11:21;8.57;;;3.17;;
12707;SDS011;6418;50.824;4.718;2023-09-19T14:13:48;7.47;;;2.78;;
12707;SDS011;6418;50.824;4.718;2023-09-19T14:16:15;9.57;;;3.28;;
12707;SDS011;6418;50.824;4.718;2023-09-19T14:18:45;6.05;;;3.17;;
12707;SDS011;6418;50.824;4.718;2023-09-19T14:21:12;7.38;;;3.05;;
12707;SDS011;6418;50.824;4.718;2023-09-19T14:23:40;9.57;;;3.08;;
12707;SDS011;6418;50.824;4.718;2023-09-19T14:26:08;11.20;;;3.08;;
12707;SDS011;6418;50.824;4.718;2023-09-19T14:28:35;7.97;;;3.30;;
12707;SDS011;6418;50.824;4.718;2023-09-19T14:31:04;9.70;;;3.10;;
12707;SDS011;6418;50.824;4.718;2023-09-19T14:33:32;10.07;;;3.13;;
12707;SDS011;6418;50.824;4.718;2023-09-19T14:36:03;8.88;;;3.22;;
12707;SDS011;6418;50.824;4.718;2023-09-19T14:38:31;8.93;;;3.20;;
12707;SDS011;6418;50.824;4.718;2023-09-19T14:41:00;7.43;;;2.97;;
12707;SDS011;6418;50.824;4.718;2023-09-19T14:43:27;10.85;;;3.60;;
12707;SDS011;6418;50.824;4.718;2023-09-19T14:45:55;7.05;;;3.10;;
12707;SDS011;6418;50.824;4.718;2023-09-19T14:48:23;6.78;;;3.17;;
12707;SDS011;6418;50.824;4.718;2023-09-19T14:50:51;10.00;;;3.20;;
12707;SDS011;6418;50.824;4.718;2023-09-19T14:53:20;10.20;;;3.13;;
12707;SDS011;6418;50.824;4.718;2023-09-19T14:55:47;6.30;;;3.20;;
12707;SDS011;6418;50.824;4.718;2023-09-19T14:58:17;9.75;;;3.38;;
12707;SDS011;6418;50.824;4.718;2023-09-19T15:00:44;9.90;;;3.10;;
12707;SDS011;6418;50.824;4.718;2023-09-19T15:03:11;8.57;;;3.13;;
12707;SDS011;6418;50.824;4.718;2023-09-19T15:05:38;7.43;;;2.75;;
12707;SDS011;6418;50.824;4.718;2023-09-19T15:08:05;11.48;;;3.50;;
12707;SDS011;6418;50.824;4.718;2023-09-19T15:10:34;8.70;;;3.15;;
12707;SDS011;6418;50.824;4.718;2023-09-19T15:13:01;9.52;;;3.80;;
12707;SDS011;6418;50.824;4.718;2023-09-19T15:15:29;9.43;;;3.65;;
12707;SDS011;6418;50.824;4.718;2023-09-19T15:17:58;9.27;;;3.55;;
12707;SDS011;6418;50.824;4.718;2023-09-19T15:20:24;10.13;;;3.42;;
12707;SDS011;6418;50.824;4.718;2023-09-19T15:22:52;9.35;;;3.47;;
12707;SDS011;6418;50.824;4.718;2023-09-19T15:25:19;10.48;;;3.45;;
12707;SDS011;6418;50.824;4.718;2023-09-19T15:27:47;9.30;;;3.47;;
12707;SDS011;6418;50.824;4.718;2023-09-19T15:30:15;10.13;;;3.53;;
12707;SDS011;6418;50.824;4.718;2023-09-19T15:32:42;10.02;;;3.60;;